SAS74Y EKVG-ENBR
Flight info
| Callsign | SAS74Y |
|---|---|
| Flight time | N/A |
| Altitude | 31000 |
| Route | ODEVA DCT VALDI/N0390F310 DCT ETNOR |
| Aircraft | E195/M-SDE3GILORVW/S |
Departure
| Time | 2026-05-06 20:14 |
|---|---|
| Airport | Vágar Airport (EKVG) |
Arrival
| Time | N/A |
|---|---|
| Airport | Bergen Airport, Flesland (ENBR) |
| Time | Latitude | Longitude | Altitude | Speed | Heading |
|---|---|---|---|---|---|
| 2026-05-06 19:55 | 62.06684 | -7.27952 | 289 ft | 0 kts | 28° |
| 2026-05-06 20:07 | 62.06681 | -7.27955 | 289 ft | 1 kts | 28° |
| 2026-05-06 20:08 | 62.06668 | -7.27964 | 289 ft | 2 kts | 1° |
| 2026-05-06 20:08 | 62.06653 | -7.27958 | 289 ft | 2 kts | 336° |
| 2026-05-06 20:08 | 62.06641 | -7.27941 | 289 ft | 2 kts | 311° |
| 2026-05-06 20:08 | 62.06635 | -7.27919 | 289 ft | 1 kts | 293° |
| 2026-05-06 20:09 | 62.06634 | -7.27917 | 289 ft | 0 kts | 293° |
| 2026-05-06 20:10 | 62.06638 | -7.27933 | 289 ft | 3 kts | 293° |
| 2026-05-06 20:10 | 62.06650 | -7.28017 | 289 ft | 8 kts | 278° |
| 2026-05-06 20:11 | 62.06611 | -7.28089 | 289 ft | 9 kts | 180° |
| 2026-05-06 20:11 | 62.06543 | -7.28106 | 289 ft | 10 kts | 200° |
| 2026-05-06 20:11 | 62.06487 | -7.28178 | 291 ft | 9 kts | 251° |
| 2026-05-06 20:11 | 62.06510 | -7.28329 | 289 ft | 14 kts | 298° |
| 2026-05-06 20:12 | 62.06568 | -7.28562 | 285 ft | 21 kts | 298° |
| 2026-05-06 20:12 | 62.06643 | -7.28870 | 279 ft | 25 kts | 298° |
| 2026-05-06 20:12 | 62.06698 | -7.29095 | 277 ft | 11 kts | 291° |
| 2026-05-06 20:12 | 62.06712 | -7.29219 | 278 ft | 5 kts | 330° |
| 2026-05-06 20:13 | 62.06728 | -7.29175 | 278 ft | 5 kts | 126° |
| 2026-05-06 20:13 | 62.06706 | -7.29121 | 278 ft | 0 kts | 117° |
| 2026-05-06 20:14 | 62.06652 | -7.28903 | 278 ft | 56 kts | 118° |
| 2026-05-06 20:14 | 62.06334 | -7.27618 | 293 ft | 138 kts | 117° |
| 2026-05-06 20:14 | 62.05815 | -7.25666 | 939 ft | 155 kts | 119° |
| 2026-05-06 20:14 | 62.05318 | -7.23746 | 1989 ft | 153 kts | 116° |
| 2026-05-06 20:15 | 62.04852 | -7.21835 | 2936 ft | 149 kts | 113° |
| 2026-05-06 20:15 | 62.04364 | -7.19809 | 3601 ft | 162 kts | 114° |
| 2026-05-06 20:15 | 62.03831 | -7.17630 | 4237 ft | 176 kts | 115° |
| 2026-05-06 20:15 | 62.03236 | -7.15209 | 4787 ft | 199 kts | 116° |
| 2026-05-06 20:16 | 62.02544 | -7.12422 | 5333 ft | 226 kts | 116° |
| 2026-05-06 20:16 | 62.01773 | -7.09332 | 5955 ft | 249 kts | 117° |
| 2026-05-06 20:16 | 62.00957 | -7.06043 | 6809 ft | 262 kts | 115° |
| 2026-05-06 20:16 | 62.00165 | -7.02550 | 7857 ft | 266 kts | 111° |
| 2026-05-06 20:17 | 61.99724 | -6.98755 | 8905 ft | 269 kts | 99° |
| 2026-05-06 20:17 | 61.99424 | -6.94869 | 9903 ft | 274 kts | 98° |
| 2026-05-06 20:17 | 61.99346 | -6.90781 | 10744 ft | 283 kts | 92° |
| 2026-05-06 20:17 | 61.99173 | -6.86510 | 11307 ft | 302 kts | 97° |
| 2026-05-06 20:18 | 61.98873 | -6.81986 | 11970 ft | 318 kts | 99° |
| 2026-05-06 20:18 | 61.98512 | -6.77342 | 12775 ft | 327 kts | 100° |
| 2026-05-06 20:18 | 61.98112 | -6.72547 | 13652 ft | 334 kts | 101° |
| 2026-05-06 20:18 | 61.97696 | -6.67711 | 14476 ft | 342 kts | 101° |
| 2026-05-06 20:19 | 61.97258 | -6.62687 | 15349 ft | 348 kts | 101° |
| 2026-05-06 20:19 | 61.96818 | -6.57685 | 16252 ft | 353 kts | 101° |
| 2026-05-06 20:19 | 61.96362 | -6.52522 | 17160 ft | 357 kts | 101° |
| 2026-05-06 20:19 | 61.95906 | -6.47389 | 18044 ft | 362 kts | 101° |
| 2026-05-06 20:20 | 61.95439 | -6.42150 | 18884 ft | 368 kts | 101° |
| 2026-05-06 20:20 | 61.94955 | -6.36752 | 19713 ft | 374 kts | 101° |
| 2026-05-06 20:20 | 61.94471 | -6.31378 | 20505 ft | 380 kts | 102° |
| 2026-05-06 20:20 | 61.93967 | -6.25818 | 21291 ft | 386 kts | 103° |
| 2026-05-06 20:21 | 61.93462 | -6.20261 | 22038 ft | 392 kts | 103° |
| 2026-05-06 20:21 | 61.92944 | -6.14597 | 22780 ft | 397 kts | 103° |
| 2026-05-06 20:21 | 61.92411 | -6.08791 | 23532 ft | 403 kts | 103° |
| 2026-05-06 20:21 | 61.91874 | -6.02972 | 24255 ft | 408 kts | 103° |
| 2026-05-06 20:22 | 61.91323 | -5.97035 | 24939 ft | 414 kts | 103° |
| 2026-05-06 20:22 | 61.90767 | -5.91076 | 25585 ft | 420 kts | 103° |
| 2026-05-06 20:22 | 61.90196 | -5.84981 | 26201 ft | 426 kts | 103° |
| 2026-05-06 20:22 | 61.89610 | -5.78755 | 26799 ft | 433 kts | 103° |
| 2026-05-06 20:23 | 61.89021 | -5.72532 | 27336 ft | 440 kts | 103° |
| 2026-05-06 20:23 | 61.88414 | -5.66149 | 27874 ft | 445 kts | 103° |
| 2026-05-06 20:23 | 61.87794 | -5.59677 | 28405 ft | 450 kts | 103° |
| 2026-05-06 20:23 | 61.87164 | -5.53121 | 28893 ft | 456 kts | 103° |
| 2026-05-06 20:24 | 61.86532 | -5.46589 | 29360 ft | 461 kts | 103° |
| 2026-05-06 20:24 | 61.85872 | -5.39801 | 29820 ft | 467 kts | 102° |
| 2026-05-06 20:24 | 61.85204 | -5.32961 | 30288 ft | 471 kts | 103° |
| 2026-05-06 20:24 | 61.84539 | -5.26201 | 30713 ft | 476 kts | 103° |
| 2026-05-06 20:25 | 61.83873 | -5.19453 | 30955 ft | 476 kts | 103° |
| 2026-05-06 20:25 | 61.83178 | -5.12458 | 31000 ft | 490 kts | 103° |
| 2026-05-06 20:25 | 61.82474 | -5.05412 | 31016 ft | 503 kts | 103° |
| 2026-05-06 20:25 | 61.81744 | -4.98148 | 31011 ft | 506 kts | 103° |
| 2026-05-06 20:26 | 61.80280 | -4.83700 | 31008 ft | 504 kts | 103° |
| 2026-05-06 20:26 | 61.78795 | -4.69212 | 31009 ft | 505 kts | 103° |
| 2026-05-06 20:27 | 61.77299 | -4.54772 | 31007 ft | 505 kts | 103° |
| 2026-05-06 20:27 | 61.75790 | -4.40380 | 31009 ft | 508 kts | 103° |
| 2026-05-06 20:28 | 61.74248 | -4.25822 | 31007 ft | 509 kts | 104° |
| 2026-05-06 20:28 | 61.72694 | -4.11309 | 31011 ft | 508 kts | 104° |
| 2026-05-06 20:29 | 61.71131 | -3.96877 | 31005 ft | 508 kts | 104° |
| 2026-05-06 20:29 | 61.69538 | -3.82320 | 31007 ft | 509 kts | 104° |
| 2026-05-06 20:30 | 61.67135 | -3.60654 | 31010 ft | 509 kts | 104° |
| 2026-05-06 20:31 | 61.65508 | -3.46176 | 31015 ft | 511 kts | 103° |
| 2026-05-06 20:31 | 61.63854 | -3.31612 | 31004 ft | 510 kts | 104° |
| 2026-05-06 20:32 | 61.62194 | -3.17142 | 31009 ft | 511 kts | 104° |
| 2026-05-06 20:32 | 61.60524 | -3.02731 | 31009 ft | 510 kts | 104° |